OTBD weather

Doha International Airport
Doha, Ad Dawhah Municipality, Qatar

Public forecast

Using degrees Celsius for public forecast. Weather courtesy of forecast.io.

METAR (pilot weather report)

Retrieved 2018/06/21 01:30 UTC (20 minutes ago):

OTBD 210130Z AUTO 32012KT CAVOK 34/20 Q1001 NOSIG

TAF (pilot weather forecast)

Forecast is more than 12 hours old.

Retrieved 2018/06/20 00:00 UTC (1 day ago):

TAF OTBD 202306Z 2100/2206 30013KT CAVOK TEMPO 2105/2115 36020KT 8000 NSC PROB30 TEMPO 2106/2114 4000 BLDU